createdAt,value
2022-08-07T00:01:43.951Z,15.80
2022-08-07T00:04:09.544Z,15.90
2022-08-07T00:06:51.702Z,15.80
2022-08-07T00:09:35.529Z,15.80
2022-08-07T00:12:10.840Z,15.80
2022-08-07T00:14:46.030Z,15.80
2022-08-07T00:17:23.486Z,15.70
2022-08-07T00:20:03.285Z,15.80
2022-08-07T00:22:40.270Z,15.80
2022-08-07T00:25:17.400Z,15.80
2022-08-07T00:27:56.588Z,15.80
2022-08-07T00:30:30.840Z,15.70
2022-08-07T00:33:08.566Z,15.70
2022-08-07T00:35:49.436Z,15.70
2022-08-07T00:38:31.183Z,15.60
2022-08-07T00:41:10.020Z,15.70
2022-08-07T00:44:01.889Z,15.70
2022-08-07T00:46:37.441Z,15.60
2022-08-07T00:49:24.946Z,15.60
2022-08-07T00:52:12.622Z,15.50
2022-08-07T00:54:47.510Z,15.50
2022-08-07T00:57:28.770Z,15.40
2022-08-07T01:00:08.795Z,15.40
2022-08-07T01:02:46.447Z,15.30
2022-08-07T01:05:20.240Z,15.10
2022-08-07T01:08:01.879Z,15.10
2022-08-07T01:10:36.153Z,15.00
2022-08-07T01:13:10.979Z,15.00
2022-08-07T01:16:05.094Z,15.00
2022-08-07T01:18:40.647Z,14.90
2022-08-07T01:21:22.646Z,14.90
2022-08-07T01:24:02.276Z,14.90
2022-08-07T01:26:37.025Z,14.80
2022-08-07T01:29:13.058Z,14.80
2022-08-07T01:31:48.102Z,14.70
2022-08-07T01:34:30.056Z,14.70
2022-08-07T01:37:12.392Z,14.50
2022-08-07T01:39:48.633Z,14.50
2022-08-07T01:42:39.262Z,14.50
2022-08-07T01:45:37.189Z,14.50
2022-08-07T01:48:30.931Z,14.50
2022-08-07T01:52:01.019Z,14.50
2022-08-07T01:54:19.177Z,14.40
2022-08-07T01:57:04.943Z,14.40
2022-08-07T01:59:45.974Z,14.30
2022-08-07T02:03:18.060Z,14.30
2022-08-07T02:05:47.804Z,14.30
2022-08-07T02:08:31.292Z,14.30
2022-08-07T02:11:10.441Z,14.30
2022-08-07T02:14:04.318Z,14.20
2022-08-07T02:16:41.650Z,14.10
2022-08-07T02:20:05.510Z,14.10
2022-08-07T02:22:12.093Z,14.10
2022-08-07T02:24:48.598Z,14.10
2022-08-07T02:27:25.337Z,14.00
2022-08-07T02:30:00.066Z,14.00
2022-08-07T02:33:00.667Z,14.00
2022-08-07T02:36:28.235Z,14.00
2022-08-07T02:38:38.775Z,14.00
2022-08-07T02:41:14.025Z,14.00
2022-08-07T02:44:00.395Z,14.00
2022-08-07T02:46:37.968Z,14.00
2022-08-07T02:49:55.980Z,13.90
2022-08-07T02:52:22.482Z,13.80
2022-08-07T02:55:27.736Z,13.70
2022-08-07T02:58:06.329Z,13.70
2022-08-07T03:00:48.498Z,13.60
2022-08-07T03:03:25.013Z,13.60
2022-08-07T03:06:04.531Z,13.50
2022-08-07T03:08:52.052Z,13.50
2022-08-07T03:11:28.108Z,13.50
2022-08-07T03:14:04.468Z,13.40
2022-08-07T03:16:43.005Z,13.30
2022-08-07T03:19:18.133Z,13.20
2022-08-07T03:21:54.832Z,13.10
2022-08-07T03:24:30.598Z,13.10
2022-08-07T03:27:09.462Z,13.10
2022-08-07T03:29:51.071Z,13.10
2022-08-07T03:32:34.423Z,13.00
2022-08-07T03:35:17.854Z,13.00
2022-08-07T03:37:56.639Z,13.00
2022-08-07T03:40:37.908Z,13.00
2022-08-07T03:43:21.181Z,13.00
2022-08-07T03:46:01.633Z,13.00
2022-08-07T03:49:02.238Z,12.90
2022-08-07T03:51:47.080Z,12.90
2022-08-07T03:54:35.624Z,12.80
2022-08-07T03:58:32.573Z,12.80
2022-08-07T04:00:15.630Z,12.90
2022-08-07T04:02:49.491Z,13.00
2022-08-07T04:05:42.477Z,13.10
2022-08-07T04:08:26.799Z,13.20
2022-08-07T04:12:24.219Z,13.30
2022-08-07T04:14:09.185Z,13.50
2022-08-07T04:16:58.609Z,13.70
2022-08-07T04:19:52.877Z,13.90
2022-08-07T04:22:30.554Z,14.10
2022-08-07T04:25:12.787Z,14.30
2022-08-07T04:27:59.326Z,14.60
2022-08-07T04:30:43.744Z,14.80
2022-08-07T04:33:36.977Z,15.00
2022-08-07T04:36:11.412Z,15.20
2022-08-07T04:38:50.698Z,15.40
2022-08-07T04:41:29.983Z,15.60
2022-08-07T04:44:18.686Z,15.80
2022-08-07T04:47:03.810Z,16.00
2022-08-07T04:49:58.001Z,16.20
2022-08-07T04:52:51.404Z,16.50
2022-08-07T04:58:10.821Z,16.80
2022-08-07T04:58:47.680Z,17.00
2022-08-07T05:01:30.211Z,17.30
2022-08-07T05:04:12.335Z,17.40
2022-08-07T05:06:53.463Z,17.70
2022-08-07T05:09:46.181Z,17.90
2022-08-07T05:12:30.493Z,18.20
2022-08-07T05:15:21.622Z,18.50
2022-08-07T05:18:08.625Z,18.70
2022-08-07T05:20:50.235Z,18.90
2022-08-07T05:23:30.023Z,19.10
2022-08-07T05:26:13.607Z,19.30
2022-08-07T05:28:56.345Z,19.50
2022-08-07T05:31:38.638Z,19.80
2022-08-07T05:34:19.811Z,19.90
2022-08-07T05:37:01.052Z,20.10
2022-08-07T05:40:05.925Z,20.20
2022-08-07T05:42:40.828Z,20.40
2022-08-07T05:45:46.129Z,20.70
2022-08-07T05:48:17.854Z,20.80
2022-08-07T05:51:01.481Z,20.90
2022-08-07T05:54:11.955Z,21.10
2022-08-07T05:56:35.099Z,21.30
2022-08-07T05:59:12.675Z,21.40
2022-08-07T06:01:50.134Z,21.50
2022-08-07T06:04:30.081Z,21.60
2022-08-07T06:07:08.063Z,21.80
2022-08-07T06:10:04.605Z,22.00
2022-08-07T06:12:42.227Z,22.10
2022-08-07T06:15:19.672Z,22.30
2022-08-07T06:18:00.125Z,22.50
2022-08-07T06:20:51.116Z,22.80
2022-08-07T06:24:38.269Z,22.90
2022-08-07T06:26:31.751Z,23.00
2022-08-07T06:29:08.015Z,23.00
2022-08-07T06:31:49.674Z,23.20
2022-08-07T06:34:31.650Z,23.50
2022-08-07T06:37:08.119Z,23.60
2022-08-07T06:40:16.506Z,23.80
2022-08-07T06:42:42.891Z,23.90
2022-08-07T06:45:35.701Z,24.10
2022-08-07T06:48:12.447Z,24.30
2022-08-07T06:50:55.529Z,24.40
2022-08-07T06:55:27.974Z,24.70
2022-08-07T06:56:39.300Z,24.80
2022-08-07T07:00:14.351Z,25.10
2022-08-07T07:02:54.402Z,25.10
2022-08-07T07:06:05.554Z,25.10
2022-08-07T07:08:29.180Z,25.20
2022-08-07T07:11:14.534Z,25.20
2022-08-07T07:14:05.051Z,25.40
2022-08-07T07:16:49.683Z,25.50
2022-08-07T07:19:55.407Z,25.60
2022-08-07T07:22:39.940Z,25.90
2022-08-07T07:26:32.325Z,26.00
2022-08-07T07:28:29.942Z,26.20
2022-08-07T07:31:21.571Z,26.00
2022-08-07T07:33:57.628Z,26.10
2022-08-07T07:36:32.884Z,26.20
2022-08-07T07:39:10.192Z,26.40
2022-08-07T07:42:02.085Z,26.50
2022-08-07T07:44:44.628Z,26.60
2022-08-07T07:47:24.318Z,26.80
2022-08-07T07:50:32.964Z,26.90
2022-08-07T07:52:53.957Z,27.00
2022-08-07T07:55:37.487Z,27.00
2022-08-07T07:58:23.220Z,27.20
2022-08-07T08:02:01.811Z,27.20
2022-08-07T08:04:10.121Z,27.20
2022-08-07T08:06:51.928Z,27.40
2022-08-07T08:09:29.117Z,27.50
2022-08-07T08:12:05.133Z,27.50
2022-08-07T08:14:43.679Z,27.50
2022-08-07T08:17:57.068Z,27.60
2022-08-07T08:20:23.231Z,27.60
2022-08-07T08:23:14.285Z,27.70
2022-08-07T08:26:13.154Z,27.70
2022-08-07T08:28:48.304Z,27.70
2022-08-07T08:31:58.587Z,27.50
2022-08-07T08:34:39.345Z,27.60
2022-08-07T08:37:59.163Z,27.80
2022-08-07T08:40:16.301Z,27.80
2022-08-07T08:42:59.475Z,27.80
2022-08-07T08:45:41.872Z,27.90
2022-08-07T08:48:32.552Z,28.00
2022-08-07T08:51:49.222Z,27.90
2022-08-07T08:54:13.127Z,28.00
2022-08-07T08:56:50.506Z,28.10
2022-08-07T08:59:30.109Z,28.30
2022-08-07T09:02:35.246Z,28.40
2022-08-07T09:05:36.854Z,28.40
2022-08-07T09:08:24.377Z,28.50
2022-08-07T09:11:14.008Z,28.50
2022-08-07T09:14:06.419Z,28.40
2022-08-07T09:16:48.837Z,28.30
2022-08-07T09:19:53.773Z,28.20
2022-08-07T09:24:31.146Z,28.20
2022-08-07T09:25:42.646Z,28.20
2022-08-07T09:30:04.693Z,28.30
2022-08-07T09:31:38.608Z,28.40
2022-08-07T09:34:16.998Z,28.40
2022-08-07T09:36:57.778Z,28.30
2022-08-07T09:39:55.249Z,28.30
2022-08-07T09:42:42.113Z,28.30
2022-08-07T09:47:50.785Z,28.30
2022-08-07T09:48:43.948Z,28.20
2022-08-07T09:52:10.322Z,28.20
2022-08-07T09:54:36.520Z,28.10
2022-08-07T09:57:36.774Z,28.20
2022-08-07T10:00:20.535Z,28.10
2022-08-07T10:04:05.371Z,28.00
2022-08-07T10:06:24.599Z,28.10
2022-08-07T10:09:34.331Z,28.20
2022-08-07T10:12:19.705Z,28.50
2022-08-07T10:15:15.464Z,28.60
2022-08-07T10:18:03.793Z,28.80
2022-08-07T10:20:44.408Z,28.70
2022-08-07T10:24:05.346Z,28.60
2022-08-07T10:26:40.458Z,28.20
2022-08-07T10:29:30.399Z,27.60
2022-08-07T10:32:36.738Z,27.10
2022-08-07T10:35:20.320Z,26.70
2022-08-07T10:38:20.824Z,26.60
2022-08-07T10:41:03.681Z,26.60
2022-08-07T10:43:39.289Z,26.30
2022-08-07T10:46:16.801Z,26.00
2022-08-07T10:49:01.218Z,25.90
2022-08-07T10:52:02.412Z,25.80
2022-08-07T10:54:39.117Z,25.70
2022-08-07T10:57:17.170Z,25.60
2022-08-07T11:00:36.447Z,25.80
2022-08-07T11:03:03.424Z,25.90
2022-08-07T11:05:51.236Z,26.10
2022-08-07T11:08:36.012Z,26.30
2022-08-07T11:11:16.336Z,26.40
2022-08-07T11:14:44.700Z,26.60
2022-08-07T11:16:55.753Z,26.40
2022-08-07T11:19:34.734Z,26.20
2022-08-07T11:22:27.437Z,25.90
2022-08-07T11:25:06.716Z,25.70
2022-08-07T11:28:01.714Z,25.70
2022-08-07T11:30:43.606Z,25.90
2022-08-07T11:33:53.580Z,25.90
2022-08-07T11:36:41.763Z,25.90
2022-08-07T11:39:19.976Z,26.00
2022-08-07T11:42:03.476Z,26.00
2022-08-07T11:44:51.995Z,26.10
2022-08-07T11:47:38.922Z,26.00
2022-08-07T11:50:36.084Z,26.00
2022-08-07T11:53:23.105Z,25.90
2022-08-07T11:56:27.251Z,25.90
2022-08-07T12:00:07.806Z,25.90
2022-08-07T12:02:17.917Z,25.80
2022-08-07T12:05:15.109Z,25.90
2022-08-07T12:08:03.973Z,25.90
2022-08-07T12:10:42.005Z,25.90
2022-08-07T12:13:35.524Z,25.90
2022-08-07T12:16:29.876Z,25.70
2022-08-07T12:19:23.063Z,25.70
2022-08-07T12:22:37.904Z,25.70
2022-08-07T12:26:00.920Z,25.80
2022-08-07T12:28:11.133Z,25.70
2022-08-07T12:30:51.402Z,25.70
2022-08-07T12:33:30.860Z,25.60
2022-08-07T12:36:33.049Z,25.50
2022-08-07T12:39:41.923Z,25.50
2022-08-07T12:42:03.493Z,25.50
2022-08-07T12:44:45.116Z,25.50
2022-08-07T12:47:26.805Z,25.50
2022-08-07T12:50:33.777Z,25.50
2022-08-07T12:53:17.908Z,25.50
2022-08-07T12:56:09.291Z,25.40
2022-08-07T12:58:53.162Z,25.30
2022-08-07T13:01:38.191Z,25.30
2022-08-07T13:04:37.254Z,25.20
2022-08-07T13:08:13.723Z,25.10
2022-08-07T13:10:52.124Z,25.10
2022-08-07T13:13:46.809Z,25.00
2022-08-07T13:16:29.670Z,24.90
2022-08-07T13:19:21.684Z,24.80
2022-08-07T13:22:12.771Z,24.80
2022-08-07T13:25:02.482Z,24.80
2022-08-07T13:28:12.829Z,24.80
2022-08-07T13:30:41.434Z,24.80
2022-08-07T13:34:31.778Z,24.70
2022-08-07T13:36:20.999Z,24.70
2022-08-07T13:39:11.113Z,24.60
2022-08-07T13:41:54.734Z,24.60
2022-08-07T13:44:34.313Z,24.60
2022-08-07T13:47:15.889Z,24.60
2022-08-07T13:50:36.632Z,24.60
2022-08-07T13:52:59.126Z,24.60
2022-08-07T13:55:37.072Z,24.60
2022-08-07T13:58:27.967Z,24.60
2022-08-07T14:01:12.796Z,24.60
2022-08-07T14:04:06.715Z,24.70
2022-08-07T14:06:45.182Z,24.60
2022-08-07T14:10:17.347Z,24.70
2022-08-07T14:12:27.644Z,24.60
2022-08-07T14:15:05.523Z,24.60
2022-08-07T14:18:24.492Z,24.50
2022-08-07T14:20:43.381Z,24.50
2022-08-07T14:23:31.462Z,24.40
2022-08-07T14:26:30.077Z,24.40
2022-08-07T14:30:02.937Z,24.40
2022-08-07T14:32:04.471Z,24.40
2022-08-07T14:34:45.456Z,24.40
2022-08-07T14:37:36.286Z,24.40
2022-08-07T14:40:16.566Z,24.40
2022-08-07T14:46:02.359Z,24.30
2022-08-07T14:48:40.199Z,24.30
2022-08-07T14:51:15.553Z,24.20
2022-08-07T14:54:09.791Z,24.30
2022-08-07T14:56:47.315Z,24.20
2022-08-07T15:02:32.090Z,24.20
2022-08-07T15:08:07.055Z,24.30
2022-08-07T15:10:58.708Z,24.20
2022-08-07T15:13:36.941Z,24.20
2022-08-07T15:16:19.771Z,24.00
2022-08-07T15:19:05.260Z,24.00
2022-08-07T15:21:58.540Z,24.00
2022-08-07T15:25:15.377Z,24.00
2022-08-07T15:27:33.012Z,24.00
2022-08-07T15:30:16.680Z,24.00
2022-08-07T15:33:03.691Z,24.00
2022-08-07T15:36:02.224Z,24.00
2022-08-07T15:38:51.878Z,23.90
2022-08-07T15:42:44.418Z,23.90
2022-08-07T15:44:24.628Z,23.90
2022-08-07T15:47:03.678Z,23.90
2022-08-07T15:50:05.215Z,23.90
2022-08-07T15:52:41.242Z,23.90
2022-08-07T15:55:16.191Z,23.80
2022-08-07T15:58:00.247Z,23.80
2022-08-07T16:00:40.076Z,23.70
2022-08-07T16:03:21.436Z,23.70
2022-08-07T16:06:13.095Z,23.70
2022-08-07T16:08:53.062Z,23.70
2022-08-07T16:11:32.554Z,23.70
2022-08-07T16:14:19.263Z,23.60
2022-08-07T16:17:14.915Z,23.60
2022-08-07T16:20:00.141Z,23.70
2022-08-07T16:22:55.566Z,23.70
2022-08-07T16:25:56.133Z,23.60
2022-08-07T16:30:08.573Z,23.60
2022-08-07T16:31:57.737Z,23.50
2022-08-07T16:34:51.264Z,23.40
2022-08-07T16:38:05.621Z,23.40
2022-08-07T16:41:12.244Z,23.40
2022-08-07T16:44:02.749Z,23.30
2022-08-07T16:47:28.929Z,23.30
2022-08-07T16:50:39.363Z,23.30
2022-08-07T16:54:02.798Z,23.20
2022-08-07T16:56:58.603Z,23.20
2022-08-07T16:59:46.015Z,23.20
2022-08-07T17:02:53.251Z,23.10
2022-08-07T17:06:20.099Z,23.10
2022-08-07T17:09:10.934Z,23.10
2022-08-07T17:12:04.728Z,23.00
2022-08-07T17:14:56.164Z,23.00
2022-08-07T17:17:46.068Z,23.00
2022-08-07T17:20:29.950Z,23.00
2022-08-07T17:23:08.621Z,22.90
2022-08-07T17:25:53.813Z,22.80
2022-08-07T17:28:31.126Z,22.90
2022-08-07T17:31:16.559Z,22.80
2022-08-07T17:34:18.306Z,22.70
2022-08-07T17:36:57.964Z,22.70
2022-08-07T17:39:58.531Z,22.50
2022-08-07T17:42:58.515Z,22.50
2022-08-07T17:45:35.143Z,22.40
2022-08-07T17:48:14.916Z,22.40
2022-08-07T17:51:04.303Z,22.30
2022-08-07T17:54:01.700Z,22.30
2022-08-07T17:56:49.894Z,22.20
2022-08-07T17:59:35.987Z,22.20
2022-08-07T18:02:14.659Z,22.20
2022-08-07T18:04:57.307Z,22.00
2022-08-07T18:07:43.913Z,22.00
2022-08-07T18:10:29.225Z,21.90
2022-08-07T18:13:23.082Z,21.80
2022-08-07T18:16:09.389Z,21.70
2022-08-07T18:21:03.993Z,21.70
2022-08-07T18:22:02.432Z,21.60
2022-08-07T18:24:40.575Z,21.60
2022-08-07T18:27:52.232Z,21.50
2022-08-07T18:30:30.778Z,21.40
2022-08-07T18:33:28.951Z,21.40
2022-08-07T18:36:09.633Z,21.40
2022-08-07T18:40:05.219Z,21.20
2022-08-07T18:42:00.816Z,21.20
2022-08-07T18:45:44.277Z,21.10
2022-08-07T18:47:45.253Z,21.00
2022-08-07T18:50:51.212Z,21.00
2022-08-07T18:53:36.730Z,20.90
2022-08-07T18:56:17.260Z,20.70
2022-08-07T18:59:08.325Z,20.70
2022-08-07T19:02:18.230Z,20.60
2022-08-07T19:05:15.022Z,20.50
2022-08-07T19:07:58.662Z,20.50
2022-08-07T19:10:51.231Z,20.50
2022-08-07T19:13:32.331Z,20.40
2022-08-07T19:16:43.640Z,20.40
2022-08-07T19:19:00.725Z,20.40
2022-08-07T19:21:53.379Z,20.30
2022-08-07T19:24:43.492Z,20.30
2022-08-07T19:28:57.638Z,20.20
2022-08-07T19:31:06.291Z,20.20
2022-08-07T19:33:17.834Z,20.20
2022-08-07T19:35:56.853Z,20.20
2022-08-07T19:38:33.404Z,20.10
2022-08-07T19:41:12.761Z,20.10
2022-08-07T19:43:59.935Z,20.00
2022-08-07T19:46:55.840Z,20.00
2022-08-07T19:49:58.402Z,19.80
2022-08-07T19:52:29.974Z,19.80
2022-08-07T19:55:11.067Z,19.70
2022-08-07T19:58:00.141Z,19.70
2022-08-07T20:00:54.152Z,19.70
2022-08-07T20:03:36.264Z,19.60
2022-08-07T20:06:15.495Z,19.50
2022-08-07T20:09:07.674Z,19.50
2022-08-07T20:12:34.764Z,19.40
2022-08-07T20:14:58.585Z,19.30
2022-08-07T20:17:38.659Z,19.30
2022-08-07T20:20:21.867Z,19.30
2022-08-07T20:23:23.095Z,19.30
2022-08-07T20:25:58.767Z,19.10
2022-08-07T20:28:35.286Z,19.10
2022-08-07T20:31:21.340Z,19.10
2022-08-07T20:33:58.737Z,19.00
2022-08-07T20:36:36.325Z,19.00
2022-08-07T20:39:31.099Z,19.00
2022-08-07T20:42:06.478Z,18.90
2022-08-07T20:44:49.511Z,18.80
2022-08-07T20:47:57.487Z,18.80
2022-08-07T20:50:23.833Z,18.80
2022-08-07T20:53:03.038Z,18.70
2022-08-07T20:55:39.389Z,18.70
2022-08-07T20:58:19.590Z,18.60
2022-08-07T21:01:05.995Z,18.40
2022-08-07T21:04:19.892Z,18.40
2022-08-07T21:06:55.000Z,18.30
2022-08-07T21:09:29.609Z,18.30
2022-08-07T21:12:30.746Z,18.20
2022-08-07T21:15:08.947Z,18.20
2022-08-07T21:18:03.076Z,18.00
2022-08-07T21:20:56.086Z,18.00
2022-08-07T21:23:50.672Z,17.90
2022-08-07T21:26:31.315Z,17.80
2022-08-07T21:29:18.485Z,17.70
2022-08-07T21:32:42.730Z,17.60
2022-08-07T21:34:58.880Z,17.50
2022-08-07T21:37:58.324Z,17.50
2022-08-07T21:40:40.296Z,17.40
2022-08-07T21:43:23.129Z,17.30
2022-08-07T21:46:24.995Z,17.20
2022-08-07T21:49:14.465Z,17.20
2022-08-07T21:52:00.950Z,17.10
2022-08-07T21:54:46.002Z,17.10
2022-08-07T21:57:31.340Z,17.00
2022-08-07T22:00:22.834Z,17.00
2022-08-07T22:03:17.074Z,17.00
2022-08-07T22:05:55.952Z,16.90
2022-08-07T22:08:31.601Z,16.90
2022-08-07T22:11:06.093Z,16.90
2022-08-07T22:13:51.363Z,16.80
2022-08-07T22:16:43.194Z,16.80
2022-08-07T22:19:20.081Z,16.80
2022-08-07T22:22:17.804Z,16.80
2022-08-07T22:25:02.935Z,16.70
2022-08-07T22:28:08.171Z,16.70
2022-08-07T22:30:34.756Z,16.60
2022-08-07T22:33:10.900Z,16.60
2022-08-07T22:35:47.455Z,16.60
2022-08-07T22:38:32.185Z,16.60
2022-08-07T22:41:08.973Z,16.50
2022-08-07T22:43:45.551Z,16.50
2022-08-07T22:47:03.860Z,16.40
2022-08-07T22:49:54.541Z,16.30
2022-08-07T22:52:48.476Z,16.30
2022-08-07T22:55:29.716Z,16.20
2022-08-07T22:58:34.269Z,16.20
2022-08-07T23:01:30.479Z,16.20
2022-08-07T23:04:29.945Z,16.10
2022-08-07T23:07:28.415Z,16.10
2022-08-07T23:10:37.463Z,16.10
2022-08-07T23:13:20.808Z,16.10
2022-08-07T23:16:48.511Z,16.00
2022-08-07T23:19:47.989Z,15.90
2022-08-07T23:22:25.738Z,15.80
2022-08-07T23:25:12.214Z,15.80
2022-08-07T23:28:22.717Z,15.70
2022-08-07T23:31:06.661Z,15.70
2022-08-07T23:34:36.004Z,15.60
2022-08-07T23:37:19.399Z,15.50
2022-08-07T23:40:02.447Z,15.50
2022-08-07T23:42:36.756Z,15.40
2022-08-07T23:45:33.573Z,15.30
2022-08-07T23:48:26.792Z,15.20
2022-08-07T23:51:02.608Z,15.20
2022-08-07T23:53:49.466Z,15.10
2022-08-07T23:56:31.306Z,15.10
